createdAt,value
2018-03-01T00:00:36.355Z,96608.27
2018-03-01T00:03:04.794Z,96605.25
2018-03-01T00:05:33.098Z,96608.06
2018-03-01T00:08:03.143Z,96602.37
2018-03-01T00:10:31.509Z,96610.13
2018-03-01T00:13:00.350Z,96610.80
2018-03-01T00:15:28.827Z,96608.34
2018-03-01T00:17:57.223Z,96608.34
2018-03-01T00:20:28.010Z,96604.16
2018-03-01T00:22:57.928Z,96588.52
2018-03-01T00:25:26.270Z,96582.39
2018-03-01T00:27:54.617Z,96569.14
2018-03-01T00:30:22.968Z,96563.75
2018-03-01T00:32:51.332Z,96567.12
2018-03-01T00:35:21.343Z,96550.11
2018-03-01T00:37:49.781Z,96543.50
2018-03-01T00:40:19.881Z,96555.89
2018-03-01T00:42:51.025Z,96556.68
2018-03-01T00:45:19.419Z,96545.64
2018-03-01T00:47:47.752Z,96542.71
2018-03-01T00:50:16.916Z,96542.28
2018-03-01T00:52:45.226Z,96544.25
2018-03-01T00:55:15.729Z,96547.42
2018-03-01T00:57:45.733Z,96549.09
2018-03-01T01:00:14.090Z,96548.73
2018-03-01T01:02:42.396Z,96530.94
2018-03-01T01:05:13.349Z,96527.61
2018-03-01T01:07:42.441Z,96525.84
2018-03-01T01:10:10.848Z,96522.83
2018-03-01T01:12:40.175Z,96519.00
2018-03-01T01:15:08.621Z,96512.36
2018-03-01T01:17:37.924Z,96510.22
2018-03-01T01:20:06.299Z,96502.00
2018-03-01T01:22:34.614Z,96489.30
2018-03-01T01:25:02.907Z,96473.00
2018-03-01T01:27:33.134Z,96456.86
2018-03-01T01:30:03.858Z,96453.26
2018-03-01T01:32:34.857Z,96453.05
2018-03-01T01:35:03.243Z,96438.05
2018-03-01T01:37:31.509Z,96432.39
2018-03-01T01:39:59.828Z,96425.90
2018-03-01T01:42:29.843Z,96418.77
2018-03-01T01:44:58.216Z,96428.11
2018-03-01T01:47:26.596Z,96436.26
2018-03-01T01:49:54.918Z,96458.34
2018-03-01T01:52:23.253Z,96443.50
2018-03-01T01:54:51.622Z,96425.94
2018-03-01T01:57:20.922Z,96413.92
2018-03-01T01:59:49.352Z,96404.11
2018-03-01T02:02:17.689Z,96386.94
2018-03-01T02:04:45.991Z,96394.02
2018-03-01T02:07:14.330Z,96400.62
2018-03-01T02:09:43.445Z,96404.62
2018-03-01T02:12:11.947Z,96400.62
2018-03-01T02:14:40.261Z,96404.26
2018-03-01T02:17:08.982Z,96397.30
2018-03-01T02:19:37.506Z,96403.39
2018-03-01T02:22:05.849Z,96394.50
2018-03-01T02:24:35.990Z,96400.83
2018-03-01T02:27:04.295Z,96389.28
2018-03-01T02:29:33.343Z,96379.36
2018-03-01T02:32:01.670Z,96399.84
2018-03-01T02:34:30.137Z,96417.99
2018-03-01T02:36:58.570Z,96419.66
2018-03-01T02:39:27.707Z,96409.66
2018-03-01T02:41:56.031Z,96401.94
2018-03-01T02:44:24.585Z,96401.55
2018-03-01T02:46:52.882Z,96387.27
2018-03-01T02:49:23.003Z,96396.75
2018-03-01T02:51:53.134Z,96389.11
2018-03-01T02:54:21.512Z,96393.69
2018-03-01T02:56:50.576Z,96393.88
2018-03-01T02:59:18.973Z,96375.84
2018-03-01T03:01:49.042Z,96367.08
2018-03-01T03:04:17.466Z,96370.08
2018-03-01T03:06:46.008Z,96350.73
2018-03-01T03:09:16.521Z,96350.73
2018-03-01T03:11:45.550Z,96351.28
2018-03-01T03:14:13.919Z,96338.72
2018-03-01T03:16:42.559Z,96337.79
2018-03-01T03:19:10.939Z,96332.59
2018-03-01T03:21:39.258Z,96323.86
2018-03-01T03:24:07.594Z,96310.88
2018-03-01T03:26:35.905Z,96310.55
2018-03-01T03:29:05.988Z,96297.02
2018-03-01T03:31:34.356Z,96298.64
2018-03-01T03:34:02.679Z,96298.72
2018-03-01T03:36:31.068Z,96284.86
2018-03-01T03:39:00.116Z,96279.52
2018-03-01T03:41:28.463Z,96283.63
2018-03-01T03:43:58.594Z,96279.95
2018-03-01T03:46:26.929Z,96269.71
2018-03-01T03:48:55.276Z,96267.80
2018-03-01T03:51:23.609Z,96274.91
2018-03-01T03:53:52.065Z,96269.06
2018-03-01T03:56:20.355Z,96266.94
2018-03-01T03:58:49.420Z,96262.89
2018-03-01T04:01:17.726Z,96277.80
2018-03-01T04:03:46.096Z,96281.87
2018-03-01T04:06:16.173Z,96280.61
2018-03-01T04:08:44.616Z,96274.22
2018-03-01T04:11:15.531Z,96273.46
2018-03-01T04:13:43.905Z,96279.67
2018-03-01T04:16:12.292Z,96268.13
2018-03-01T04:18:42.587Z,96252.57
2018-03-01T04:21:15.904Z,96255.67
2018-03-01T04:23:47.542Z,96261.13
2018-03-01T04:26:18.762Z,96260.69
2018-03-01T04:28:47.109Z,96260.44
2018-03-01T04:31:16.180Z,96250.12
2018-03-01T04:33:44.622Z,96245.35
2018-03-01T04:36:13.730Z,96249.57
2018-03-01T04:38:42.081Z,96240.98
2018-03-01T04:41:10.403Z,96247.16
2018-03-01T04:43:38.743Z,96246.18
2018-03-01T04:46:07.808Z,96243.11
2018-03-01T04:48:36.117Z,96238.63
2018-03-01T04:51:06.184Z,96244.27
2018-03-01T04:53:35.169Z,96241.77
2018-03-01T04:56:04.534Z,96247.62
2018-03-01T04:58:32.911Z,96248.69
2018-03-01T05:01:03.203Z,96241.59
2018-03-01T05:03:35.505Z,96235.30
2018-03-01T05:06:03.851Z,96224.33
2018-03-01T05:08:32.191Z,96218.81
2018-03-01T05:11:00.965Z,96220.94
2018-03-01T05:13:32.156Z,96218.20
2018-03-01T05:16:00.476Z,96222.75
2018-03-01T05:18:29.875Z,96210.38
2018-03-01T05:20:58.411Z,96211.19
2018-03-01T05:23:26.735Z,96211.63
2018-03-01T05:25:55.219Z,96220.51
2018-03-01T05:28:23.546Z,96202.92
2018-03-01T05:33:21.499Z,96195.96
2018-03-01T05:35:49.851Z,96191.05
2018-03-01T05:38:18.163Z,96183.69
2018-03-01T05:40:46.561Z,96184.66
2018-03-01T05:43:15.685Z,96190.87
2018-03-01T05:45:46.595Z,96183.67
2018-03-01T05:48:15.028Z,96200.27
2018-03-01T05:50:43.322Z,96191.97
2018-03-01T05:53:11.666Z,96187.67
2018-03-01T05:55:43.321Z,96197.81
2018-03-01T05:58:13.316Z,96197.48
2018-03-01T06:00:43.482Z,96195.83
2018-03-01T06:03:11.914Z,96190.99
2018-03-01T06:05:40.425Z,96189.37
2018-03-01T06:08:09.575Z,96181.90
2018-03-01T06:13:07.020Z,96186.72
2018-03-01T06:15:37.335Z,96178.93
2018-03-01T06:18:08.772Z,96187.69
2018-03-01T06:20:38.837Z,96187.45
2018-03-01T06:23:07.291Z,96188.42
2018-03-01T06:25:35.742Z,96188.21
2018-03-01T06:28:04.839Z,96190.05
2018-03-01T06:30:33.186Z,96193.22
2018-03-01T06:33:01.604Z,96186.50
2018-03-01T06:35:30.697Z,96191.58
2018-03-01T06:38:00.195Z,96188.54
2018-03-01T06:40:31.168Z,96182.64
2018-03-01T06:42:59.626Z,96174.16
2018-03-01T06:45:28.065Z,96165.13
2018-03-01T06:47:56.447Z,96151.09
2018-03-01T06:50:26.693Z,96138.55
2018-03-01T06:52:57.905Z,96135.08
2018-03-01T06:55:33.299Z,96154.61
2018-03-01T06:58:03.412Z,96122.97
2018-03-01T07:00:31.843Z,96118.86
2018-03-01T07:03:01.155Z,96114.91
2018-03-01T07:05:31.300Z,96110.09
2018-03-01T07:08:01.444Z,96107.28
2018-03-01T07:10:30.652Z,96101.44
2018-03-01T07:12:59.750Z,96102.50
2018-03-01T07:15:28.412Z,96094.73
2018-03-01T07:17:59.592Z,96096.63
2018-03-01T07:20:29.760Z,96093.55
2018-03-01T07:22:59.996Z,96097.06
2018-03-01T07:25:28.388Z,96093.95
2018-03-01T07:27:56.796Z,96098.33
2018-03-01T07:30:27.926Z,96094.58
2018-03-01T07:32:56.436Z,96096.30
2018-03-01T07:35:24.769Z,96099.83
2018-03-01T07:37:53.183Z,96101.19
2018-03-01T07:40:25.197Z,96096.50
2018-03-01T07:42:53.648Z,96104.30
2018-03-01T07:45:22.052Z,96105.27
2018-03-01T07:47:50.404Z,96098.95
2018-03-01T07:50:19.607Z,96097.76
2018-03-01T07:52:47.936Z,96098.38
2018-03-01T07:55:19.182Z,96100.30
2018-03-01T07:57:47.658Z,96096.73
2018-03-01T08:00:16.278Z,96105.52
2018-03-01T08:02:47.268Z,96096.03
2018-03-01T08:05:17.505Z,96092.76
2018-03-01T08:07:45.926Z,96091.96
2018-03-01T08:10:14.298Z,96089.44
2018-03-01T08:12:42.714Z,96084.81
2018-03-01T08:15:11.058Z,96083.17
2018-03-01T08:17:39.409Z,96083.42
2018-03-01T08:20:09.652Z,96080.11
2018-03-01T08:22:38.907Z,96072.81
2018-03-01T08:25:11.274Z,96068.31
2018-03-01T08:27:39.651Z,96058.20
2018-03-01T08:30:08.030Z,96056.17
2018-03-01T08:32:38.225Z,96050.03
2018-03-01T08:35:06.639Z,96038.86
2018-03-01T08:37:34.990Z,96035.17
2018-03-01T08:40:03.552Z,96024.88
2018-03-01T08:42:31.990Z,96023.37
2018-03-01T08:45:00.398Z,96014.52
2018-03-01T08:47:29.779Z,96015.72
2018-03-01T08:50:00.020Z,96013.13
2018-03-01T08:52:30.836Z,95993.98
2018-03-01T08:54:59.617Z,95998.95
2018-03-01T08:57:27.977Z,96005.53
2018-03-01T08:59:58.057Z,95995.75
2018-03-01T09:02:26.488Z,95989.28
2018-03-01T09:04:56.539Z,95986.52
2018-03-01T09:07:24.969Z,95985.83
2018-03-01T09:09:55.612Z,95975.67
2018-03-01T09:12:25.848Z,95982.20
2018-03-01T09:14:56.208Z,95977.23
2018-03-01T09:17:26.414Z,95978.70
2018-03-01T09:19:54.902Z,95968.62
2018-03-01T09:22:24.005Z,95964.84
2018-03-01T09:24:52.457Z,95976.05
2018-03-01T09:27:20.908Z,95971.38
2018-03-01T09:29:49.344Z,95976.42
2018-03-01T09:32:17.730Z,95989.63
2018-03-01T09:34:46.208Z,95996.11
2018-03-01T09:37:15.414Z,95992.87
2018-03-01T09:39:43.853Z,95996.34
2018-03-01T09:42:12.383Z,95992.44
2018-03-01T09:44:40.886Z,95993.33
2018-03-01T09:47:09.273Z,96002.61
2018-03-01T09:49:40.643Z,95993.55
2018-03-01T09:52:09.000Z,95998.11
2018-03-01T09:54:37.332Z,95996.59
2018-03-01T09:57:08.319Z,95987.84
2018-03-01T09:59:38.377Z,95989.07
2018-03-01T10:02:06.813Z,95991.16
2018-03-01T10:04:36.015Z,95993.79
2018-03-01T10:07:04.387Z,95990.22
2018-03-01T10:09:32.832Z,95985.05
2018-03-01T10:12:03.211Z,95978.13
2018-03-01T10:14:34.754Z,95976.56
2018-03-01T10:17:03.392Z,95979.54
2018-03-01T10:19:32.531Z,95977.05
2018-03-01T10:22:00.848Z,95966.96
2018-03-01T10:24:29.921Z,95967.96
2018-03-01T10:26:58.309Z,95967.38
2018-03-01T10:29:28.266Z,95963.77
2018-03-01T10:31:56.637Z,95964.41
2018-03-01T10:34:25.010Z,95965.80
2018-03-01T10:36:54.073Z,95960.46
2018-03-01T10:39:22.522Z,95962.37
2018-03-01T10:41:52.533Z,95954.97
2018-03-01T10:44:20.946Z,95947.98
2018-03-01T10:46:50.061Z,95948.78
2018-03-01T10:49:18.524Z,95942.45
2018-03-01T10:51:46.944Z,95943.75
2018-03-01T10:54:15.347Z,95939.05
2018-03-01T10:56:43.992Z,95934.67
2018-03-01T10:59:13.300Z,95930.73
2018-03-01T11:01:48.915Z,95931.30
2018-03-01T11:04:17.715Z,95928.84
2018-03-01T11:06:46.952Z,95922.83
2018-03-01T11:09:17.672Z,95927.20
2018-03-01T11:11:48.506Z,95923.51
2018-03-01T11:14:17.809Z,95924.91
2018-03-01T11:16:46.197Z,95925.90
2018-03-01T11:19:14.864Z,95907.98
2018-03-01T11:21:43.257Z,95909.44
2018-03-01T11:24:13.469Z,95915.89
2018-03-01T11:26:44.495Z,95915.58
2018-03-01T11:29:13.358Z,95912.61
2018-03-01T11:31:41.765Z,95902.70
2018-03-01T11:34:11.874Z,95906.86
2018-03-01T11:36:40.341Z,95903.58
2018-03-01T11:39:08.751Z,95911.17
2018-03-01T11:41:39.836Z,95921.58
2018-03-01T11:44:08.235Z,95909.92
2018-03-01T11:46:36.813Z,95899.11
2018-03-01T11:49:06.455Z,95889.17
2018-03-01T11:51:34.972Z,95896.31
2018-03-01T11:54:04.137Z,95897.20
2018-03-01T11:56:32.484Z,95884.82
2018-03-01T11:59:00.764Z,95878.33
2018-03-01T12:01:29.141Z,95881.09
2018-03-01T12:03:57.546Z,95884.72
2018-03-01T12:06:26.929Z,95885.76
2018-03-01T12:08:58.076Z,95875.42
2018-03-01T12:11:26.447Z,95873.00
2018-03-01T12:13:54.878Z,95869.94
2018-03-01T12:16:23.199Z,95862.85
2018-03-01T12:18:51.599Z,95854.27
2018-03-01T12:21:19.993Z,95855.43
2018-03-01T12:23:48.552Z,95854.27
2018-03-01T12:26:18.755Z,95854.34
2018-03-01T12:28:47.244Z,95851.36
2018-03-01T12:31:15.563Z,95850.61
2018-03-01T12:33:44.021Z,95846.16
2018-03-01T12:36:12.432Z,95848.63
2018-03-01T12:38:40.805Z,95847.56
2018-03-01T12:41:09.285Z,95846.33
2018-03-01T12:43:37.701Z,95832.95
2018-03-01T12:46:06.261Z,95829.06
2018-03-01T12:48:34.670Z,95828.53
2018-03-01T12:51:03.047Z,95815.14
2018-03-01T12:53:31.375Z,95825.72
2018-03-01T12:55:59.701Z,95833.08
2018-03-01T12:58:28.021Z,95832.69
2018-03-01T13:00:56.397Z,95818.88
2018-03-01T13:03:24.809Z,95816.94
2018-03-01T13:05:53.161Z,95819.03
2018-03-01T13:08:21.700Z,95809.66
2018-03-01T13:10:50.081Z,95801.59
2018-03-01T13:13:18.351Z,95797.12
2018-03-01T13:15:49.289Z,95799.67
2018-03-01T13:18:17.777Z,95785.97
2018-03-01T13:20:46.329Z,95788.33
2018-03-01T13:23:14.680Z,95784.60
2018-03-01T13:25:43.006Z,95784.44
2018-03-01T13:28:11.339Z,95783.58
2018-03-01T13:30:39.682Z,95776.88
2018-03-01T13:33:13.700Z,95775.15
2018-03-01T13:35:42.061Z,95776.88
2018-03-01T13:38:10.429Z,95774.73
2018-03-01T13:40:38.735Z,95784.17
2018-03-01T13:43:07.063Z,95783.40
2018-03-01T13:45:39.149Z,95779.25
2018-03-01T13:48:07.496Z,95785.48
2018-03-01T13:50:39.191Z,95791.19
2018-03-01T13:53:07.661Z,95787.58
2018-03-01T13:55:36.010Z,95787.21
2018-03-01T13:58:04.451Z,95779.65
2018-03-01T14:00:32.955Z,95777.34
2018-03-01T14:03:01.387Z,95775.85
2018-03-01T14:05:31.434Z,95768.98
2018-03-01T14:08:00.046Z,95780.52
2018-03-01T14:10:30.206Z,95781.05
2018-03-01T14:26:53.771Z,95773.08
2018-03-01T14:29:33.571Z,95772.27
2018-03-01T14:32:08.089Z,95766.50
2018-03-01T14:34:36.736Z,95762.09
2018-03-01T14:37:07.425Z,95761.27
2018-03-01T14:39:35.790Z,95769.50
2018-03-01T14:42:05.826Z,95757.45
2018-03-01T14:44:34.980Z,95757.45
2018-03-01T14:47:03.521Z,95758.11
2018-03-01T14:49:32.714Z,95754.02
2018-03-01T14:52:01.934Z,95742.63
2018-03-01T14:54:30.294Z,95732.92
2018-03-01T14:56:58.720Z,95743.06
2018-03-01T14:59:27.057Z,95735.08
2018-03-01T15:01:59.356Z,95730.56
2018-03-01T15:04:27.806Z,95722.80
2018-03-01T15:06:57.205Z,95724.06
2018-03-01T15:09:25.584Z,95730.53
2018-03-01T15:11:53.928Z,95727.95
2018-03-01T15:14:22.478Z,95723.89
2018-03-01T15:16:51.020Z,95726.38
2018-03-01T15:19:23.570Z,95722.17
2018-03-01T15:21:51.938Z,95711.89
2018-03-01T15:24:22.081Z,95716.81
2018-03-01T15:26:50.519Z,95706.34
2018-03-01T15:29:20.647Z,95712.98
2018-03-01T15:31:51.672Z,95707.20
2018-03-01T15:34:23.934Z,95706.34
2018-03-01T15:36:52.370Z,95712.22
2018-03-01T15:39:23.649Z,95714.47
2018-03-01T15:41:52.840Z,95712.60
2018-03-01T15:44:21.302Z,95709.86
2018-03-01T15:46:51.399Z,95709.39
2018-03-01T15:49:22.410Z,95710.77
2018-03-01T15:51:50.994Z,95715.41
2018-03-01T15:54:20.100Z,95710.34
2018-03-01T15:56:49.332Z,95708.70
2018-03-01T15:59:17.664Z,95710.37
2018-03-01T16:01:46.750Z,95710.28
2018-03-01T16:04:15.114Z,95703.54
2018-03-01T16:06:43.720Z,95702.95
2018-03-01T16:09:12.075Z,95703.62
2018-03-01T16:11:43.980Z,95701.84
2018-03-01T16:14:12.363Z,95707.52
2018-03-01T16:16:40.718Z,95707.14
2018-03-01T16:19:09.919Z,95705.38
2018-03-01T16:21:40.028Z,95705.21
2018-03-01T16:24:11.253Z,95703.17
2018-03-01T16:26:40.655Z,95700.33
2018-03-01T16:29:11.821Z,95698.50
2018-03-01T16:31:40.274Z,95695.97
2018-03-01T16:34:09.190Z,95700.30
2018-03-01T16:36:39.383Z,95700.66
2018-03-01T16:39:07.814Z,95698.09
2018-03-01T16:41:39.632Z,95700.80
2018-03-01T16:44:09.866Z,95698.86
2018-03-01T16:46:39.439Z,95696.75
2018-03-01T16:49:08.010Z,95698.80
2018-03-01T16:51:38.055Z,95701.28
2018-03-01T16:54:07.294Z,95701.00
2018-03-01T16:56:37.148Z,95705.30
2018-03-01T16:59:05.539Z,95708.80
2018-03-01T17:01:36.588Z,95711.23
2018-03-01T17:04:12.214Z,95710.31
2018-03-01T17:06:42.739Z,95710.41
2018-03-01T17:09:12.791Z,95704.05
2018-03-01T17:11:41.376Z,95705.06
2018-03-01T17:14:11.314Z,95707.42
2018-03-01T17:16:47.318Z,95710.91
2018-03-01T17:19:16.720Z,95713.64
2018-03-01T17:21:46.838Z,95713.91
2018-03-01T17:24:16.469Z,95706.78
2018-03-01T17:26:53.557Z,95705.70
2018-03-01T17:29:22.141Z,95706.01
2018-03-01T17:31:51.639Z,95712.40
2018-03-01T17:34:20.068Z,95713.46
2018-03-01T17:36:48.601Z,95707.91
2018-03-01T17:39:17.103Z,95711.56
2018-03-01T17:41:48.301Z,95708.95
2018-03-01T17:44:18.385Z,95710.45
2018-03-01T17:46:49.940Z,95718.21
2018-03-01T17:49:19.209Z,95710.98
2018-03-01T17:51:47.547Z,95709.20
2018-03-01T17:54:16.001Z,95706.98
2018-03-01T17:56:44.454Z,95710.18
2018-03-01T17:59:12.792Z,95707.10
2018-03-01T18:01:41.926Z,95703.77
2018-03-01T18:04:10.408Z,95708.41
2018-03-01T18:06:38.887Z,95702.97
2018-03-01T18:09:07.257Z,95703.28
2018-03-01T18:11:37.484Z,95698.59
2018-03-01T18:14:05.976Z,95698.03
2018-03-01T18:16:34.423Z,95699.09
2018-03-01T18:19:02.876Z,95693.22
2018-03-01T18:21:32.936Z,95689.42
2018-03-01T18:24:04.066Z,95691.41
2018-03-01T18:26:32.583Z,95690.48
2018-03-01T18:29:08.836Z,95689.13
2018-03-01T18:31:37.976Z,95691.48
2018-03-01T18:34:07.083Z,95689.73
2018-03-01T18:36:37.089Z,95689.27
2018-03-01T18:39:07.145Z,95687.47
2018-03-01T18:41:36.310Z,95682.83
2018-03-01T18:44:06.258Z,95692.73
2018-03-01T18:46:34.736Z,95683.55
2018-03-01T18:49:03.897Z,95678.94
2018-03-01T18:51:32.410Z,95675.41
2018-03-01T18:54:02.703Z,95679.50
2018-03-01T18:56:33.593Z,95679.41
2018-03-01T18:59:03.526Z,95673.13
2018-03-01T19:01:34.934Z,95675.59
2018-03-01T19:04:04.988Z,95663.48
2018-03-01T19:06:35.263Z,95661.38
2018-03-01T19:09:05.946Z,95667.20
2018-03-01T19:11:34.303Z,95676.69
2018-03-01T19:14:02.752Z,95673.30
2018-03-01T19:16:31.159Z,95667.92
2018-03-01T19:18:59.813Z,95668.19
2018-03-01T19:21:30.061Z,95672.37
2018-03-01T19:24:00.400Z,95679.41
2018-03-01T19:26:28.936Z,95679.43
2018-03-01T19:28:59.260Z,95677.27
2018-03-01T19:31:30.131Z,95682.28
2018-03-01T19:34:00.429Z,95679.00
2018-03-01T19:36:29.832Z,95680.55
2018-03-01T19:39:00.917Z,95682.53
2018-03-01T19:41:29.346Z,95682.53
2018-03-01T19:43:59.471Z,95675.59
2018-03-01T19:46:29.656Z,95681.84
2018-03-01T19:48:58.098Z,95674.66
2018-03-01T19:51:28.995Z,95668.84
2018-03-01T19:53:58.271Z,95662.19
2018-03-01T19:56:26.676Z,95665.28
2018-03-01T19:58:59.060Z,95657.66
2018-03-01T20:01:27.790Z,95657.53
2018-03-01T20:03:56.216Z,95658.27
2018-03-01T20:06:24.660Z,95660.82
2018-03-01T20:08:53.074Z,95649.63
2018-03-01T20:11:23.622Z,95658.91
2018-03-01T20:13:52.183Z,95649.73
2018-03-01T20:16:20.517Z,95645.98
2018-03-01T20:18:48.870Z,95636.01
2018-03-01T20:21:20.941Z,95639.98
2018-03-01T20:23:49.535Z,95639.91
2018-03-01T20:26:18.144Z,95633.35
2018-03-01T20:28:46.632Z,95641.70
2018-03-01T20:31:14.970Z,95636.94
2018-03-01T20:33:43.421Z,95633.50
2018-03-01T20:36:16.214Z,95633.86
2018-03-01T20:38:50.010Z,95638.59
2018-03-01T20:41:23.817Z,95635.88
2018-03-01T20:43:54.315Z,95642.42
2018-03-01T20:46:26.191Z,95643.02
2018-03-01T20:48:58.055Z,95642.91
2018-03-01T20:51:28.933Z,95643.45
2018-03-01T20:53:59.549Z,95631.53
2018-03-01T20:56:29.749Z,95632.58
2018-03-01T20:58:58.245Z,95644.00
2018-03-01T21:01:30.158Z,95622.55
2018-03-01T21:04:05.466Z,95626.69
2018-03-01T21:06:39.402Z,95627.66
2018-03-01T21:09:12.451Z,95619.25
2018-03-01T21:11:45.590Z,95620.80
2018-03-01T21:14:17.642Z,95615.28
2018-03-01T21:16:48.518Z,95612.77
2018-03-01T21:19:18.368Z,95608.78
2018-03-01T21:21:46.787Z,95602.84
2018-03-01T21:24:15.942Z,95603.61
2018-03-01T21:26:44.422Z,95597.34
2018-03-01T21:29:12.887Z,95599.59
2018-03-01T21:31:41.415Z,95593.59
2018-03-01T21:34:11.523Z,95593.09
2018-03-01T21:36:41.587Z,95597.76
2018-03-01T21:39:11.698Z,95590.59
2018-03-01T21:41:40.986Z,95588.80
2018-03-01T21:44:11.008Z,95617.84
2018-03-01T21:46:39.606Z,95581.61
2018-03-01T21:49:08.687Z,95579.47
2018-03-01T21:51:38.910Z,95578.55
2018-03-01T21:54:07.511Z,95574.75
2018-03-01T21:56:37.465Z,95568.83
2018-03-01T21:59:06.602Z,95565.44
2018-03-01T22:01:34.974Z,95562.77
2018-03-01T22:04:03.325Z,95564.59
2018-03-01T22:06:31.663Z,95566.48
2018-03-01T22:09:00.079Z,95564.77
2018-03-01T22:11:28.552Z,95555.27
2018-03-01T22:13:56.932Z,95555.49
2018-03-01T22:16:27.001Z,95552.40
2018-03-01T22:18:56.128Z,95547.33
2018-03-01T22:21:24.473Z,95543.55
2018-03-01T22:23:52.810Z,95534.06
2018-03-01T22:26:21.144Z,95536.45
2018-03-01T22:28:52.023Z,95540.33
2018-03-01T22:31:21.613Z,95534.95
2018-03-01T22:33:50.240Z,95540.90
2018-03-01T22:36:18.657Z,95537.59
2018-03-01T22:38:47.000Z,95537.09
2018-03-01T22:41:18.320Z,95541.02
2018-03-01T22:43:46.635Z,95529.33
2018-03-01T22:46:16.748Z,95521.44
2018-03-01T22:48:45.191Z,95534.44
2018-03-01T22:51:13.505Z,95524.43
2018-03-01T22:53:42.016Z,95517.70
2018-03-01T22:56:10.601Z,95520.03
2018-03-01T22:58:38.951Z,95525.28
2018-03-01T23:01:08.017Z,95512.80
2018-03-01T23:03:36.385Z,95513.97
2018-03-01T23:06:05.594Z,95510.21
2018-03-01T23:08:33.948Z,95506.63
2018-03-01T23:11:03.203Z,95501.49
2018-03-01T23:13:31.533Z,95497.72
2018-03-01T23:15:59.836Z,95507.16
2018-03-01T23:18:28.196Z,95501.72
2018-03-01T23:20:56.695Z,95498.14
2018-03-01T23:23:25.725Z,95485.32
2018-03-01T23:25:54.222Z,95490.95
2018-03-01T23:28:24.234Z,95484.22
2018-03-01T23:30:53.421Z,95472.28
2018-03-01T23:33:21.851Z,95463.60
2018-03-01T23:35:50.929Z,95461.36
2018-03-01T23:38:21.013Z,95458.37
2018-03-01T23:40:49.538Z,95461.59
2018-03-01T23:43:20.654Z,95450.51
2018-03-01T23:45:49.059Z,95448.75
2018-03-01T23:48:20.078Z,95442.02
2018-03-01T23:50:50.195Z,95438.20
2018-03-01T23:53:18.589Z,95433.27
2018-03-01T23:55:46.975Z,95442.27
2018-03-01T23:58:16.471Z,95436.26
